Terminal Aerodrome Forecast
Issued by NWS

Home | Current Version | Previous Version | Text Only | Print | Product List | Glossary On
Versions: 1 2 3 4 5 6 7 8 9 10 11 12 13 14 15
443
FTUS43 KMQT 041735
TAFCMX
TAF
KCMX 041735Z 0418/0518 35014G23KT P6SM BKN015
     FM042100 36014G21KT P6SM SCT200
     FM042300 35009KT P6SM SKC
     FM051100 26007KT P6SM SCT200=

USA.gov is the U.S. government's official web portal to all federal, state and local government web resources and services.